Time;durP1;ratioP1;P1;durP2;ratioP2;P2;SDS_P1;SDS_P2;PMS_P1;PMS_P2;Temp;Humidity;BMP_temperature;BMP_pressure;BME280_temperature;BME280_humidity;BME280_pressure;Samples;Min_cycle;Max_cycle;Signal;HPM_P1;HPM_P2
2024/01/16 00:00:34;;;;;;;0.73;0.30;;;0.40;99.90;;;;;;5046815;28;20104;-58
2024/01/16 00:03:00;;;;;;;3.75;0.30;;;0.40;99.90;;;;;;5052203;28;20580;-51
2024/01/16 00:05:26;;;;;;;3.58;0.70;;;0.40;99.90;;;;;;5030430;28;20487;-54
2024/01/16 00:07:51;;;;;;;4.68;0.57;;;0.50;99.90;;;;;;5044874;28;20045;-57
2024/01/16 00:10:17;;;;;;;1.73;0.10;;;0.40;99.90;;;;;;5041498;28;20864;-57
2024/01/16 00:12:43;;;;;;;4.72;0.63;;;0.40;99.90;;;;;;5046574;28;20055;-55
2024/01/16 00:15:09;;;;;;;0.20;0.20;;;0.40;99.90;;;;;;5046017;28;20049;-58
2024/01/16 00:17:35;;;;;;;1.90;0.57;;;0.40;99.90;;;;;;5045424;28;21243;-57
2024/01/16 00:20:01;;;;;;;0.82;0.30;;;0.40;99.90;;;;;;5051874;28;20111;-58
2024/01/16 00:22:27;;;;;;;9.57;0.88;;;0.40;99.90;;;;;;5053722;28;20296;-50
2024/01/16 00:24:53;;;;;;;2.78;0.25;;;0.50;99.90;;;;;;5043683;28;20049;-60
2024/01/16 00:27:20;;;;;;;0.00;0.00;;;0.50;99.90;;;;;;5049677;28;20872;-50
2024/01/16 00:29:45;;;;;;;0.57;0.20;;;0.50;99.90;;;;;;5045061;28;20041;-55
2024/01/16 00:32:15;;;;;;;3.35;0.40;;;0.50;99.90;;;;;;5041154;28;20508;-53
2024/01/16 00:34:42;;;;;;;8.43;1.15;;;0.50;99.90;;;;;;5047780;28;20552;-46
2024/01/16 00:37:08;;;;;;;13.10;1.20;;;0.50;99.90;;;;;;5045015;28;20045;-53
2024/01/16 00:39:33;;;;;;;7.07;1.02;;;0.50;99.90;;;;;;5051948;28;20048;-51
2024/01/16 00:41:59;;;;;;;4.78;0.63;;;0.40;99.90;;;;;;5025111;28;20067;-50
2024/01/16 00:44:25;;;;;;;13.50;1.02;;;0.40;99.90;;;;;;4998721;28;20045;-55
2024/01/16 00:46:54;;;;;;;5.85;1.15;;;0.40;99.90;;;;;;5043063;28;20087;-57
2024/01/16 00:49:20;;;;;;;9.93;0.88;;;0.40;99.90;;;;;;5044367;28;20394;-52
2024/01/16 00:51:45;;;;;;;13.18;1.90;;;0.40;99.90;;;;;;5027436;28;20506;-61
2024/01/16 00:54:11;;;;;;;13.43;1.40;;;0.50;99.90;;;;;;5041321;28;20156;-52
2024/01/16 00:56:37;;;;;;;9.48;1.48;;;0.50;99.90;;;;;;5044314;28;20033;-56
2024/01/16 00:59:03;;;;;;;10.43;1.40;;;0.60;99.90;;;;;;5031537;28;20581;-54
2024/01/16 01:01:28;;;;;;;9.68;3.80;;;0.60;99.90;;;;;;5010329;28;20040;-51
2024/01/16 01:03:54;;;;;;;13.00;2.88;;;0.60;99.90;;;;;;5058388;28;20051;-50
2024/01/16 01:06:20;;;;;;;15.65;4.65;;;0.70;99.90;;;;;;5057032;28;20055;-55
2024/01/16 01:08:46;;;;;;;10.75;3.45;;;0.70;99.90;;;;;;5048877;28;20187;-56
2024/01/16 01:11:12;;;;;;;12.20;1.52;;;0.70;99.90;;;;;;5050725;28;20037;-46
2024/01/16 01:13:38;;;;;;;6.43;1.15;;;0.80;99.90;;;;;;5014387;28;20509;-49
2024/01/16 01:16:04;;;;;;;12.30;1.58;;;0.80;99.90;;;;;;5025035;28;20452;-53
2024/01/16 01:18:30;;;;;;;7.97;1.25;;;0.80;99.90;;;;;;5046432;28;20055;-57
2024/01/16 01:20:56;;;;;;;13.10;2.30;;;0.70;99.90;;;;;;5043219;28;20041;-51
2024/01/16 01:23:22;;;;;;;4.63;0.98;;;0.80;99.90;;;;;;5040289;28;20403;-57
2024/01/16 01:25:47;;;;;;;4.32;0.93;;;0.80;99.90;;;;;;5046402;28;20048;-56
2024/01/16 01:28:13;;;;;;;8.77;1.75;;;0.80;99.90;;;;;;5040820;28;20041;-56
2024/01/16 01:30:39;;;;;;;5.85;0.90;;;0.80;99.90;;;;;;5045967;28;20048;-51
2024/01/16 01:33:05;;;;;;;2.35;0.22;;;0.80;99.90;;;;;;5043374;28;20041;-50
2024/01/16 01:35:30;;;;;;;2.85;0.32;;;0.80;99.90;;;;;;5048743;28;20052;-55
2024/01/16 01:37:56;;;;;;;3.33;0.43;;;0.70;99.90;;;;;;5053421;28;20040;-47
2024/01/16 01:40:22;;;;;;;9.38;1.05;;;0.60;99.90;;;;;;5045014;28;20045;-54
2024/01/16 01:42:48;;;;;;;4.22;0.32;;;0.50;99.90;;;;;;5024322;28;20052;-60
2024/01/16 01:45:14;;;;;;;4.25;0.73;;;0.40;99.90;;;;;;5046976;28;20041;-56
2024/01/16 01:47:42;;;;;;;2.28;0.32;;;0.30;99.90;;;;;;5024390;28;20061;-51
2024/01/16 01:50:09;;;;;;;7.47;0.35;;;0.30;99.90;;;;;;5045579;28;20033;-47
2024/01/16 01:52:36;;;;;;;2.92;1.05;;;0.20;99.90;;;;;;5040895;28;20079;-59
2024/01/16 01:55:03;;;;;;;3.05;0.50;;;0.30;99.90;;;;;;5025229;28;20092;-53
2024/01/16 01:57:29;;;;;;;1.30;0.60;;;0.30;99.90;;;;;;5006610;28;20106;-54
2024/01/16 01:59:55;;;;;;;5.68;0.55;;;0.40;99.90;;;;;;5031596;28;20111;-54
2024/01/16 02:02:22;;;;;;;8.00;0.57;;;0.40;99.90;;;;;;5022031;28;20739;-54
2024/01/16 02:04:48;;;;;;;6.63;0.40;;;0.40;99.90;;;;;;5051254;28;20118;-57
2024/01/16 02:07:15;;;;;;;4.10;0.68;;;0.50;99.90;;;;;;5026782;28;20041;-53
2024/01/16 02:09:41;;;;;;;4.10;0.80;;;0.50;99.90;;;;;;5020392;28;20057;-50
2024/01/16 02:12:07;;;;;;;11.80;0.88;;;0.40;99.90;;;;;;5013988;28;20092;-51
2024/01/16 02:14:33;;;;;;;2.45;0.20;;;0.40;99.90;;;;;;5046637;28;20041;-48
2024/01/16 02:16:58;;;;;;;3.10;0.63;;;0.40;99.90;;;;;;5033028;28;20454;-54
2024/01/16 02:19:25;;;;;;;1.98;0.60;;;0.40;99.90;;;;;;5026364;28;20132;-56
2024/01/16 02:21:53;;;;;;;1.25;0.30;;;0.40;99.90;;;;;;5042148;28;20048;-60
2024/01/16 02:24:19;;;;;;;8.88;0.73;;;0.40;99.90;;;;;;5046541;28;20111;-49
2024/01/16 02:26:45;;;;;;;1.13;0.20;;;0.40;99.90;;;;;;5045608;28;20084;-61
2024/01/16 02:29:11;;;;;;;14.05;1.25;;;0.40;99.90;;;;;;5038517;28;20230;-46
2024/01/16 02:31:37;;;;;;;7.80;0.70;;;0.50;99.90;;;;;;5041013;28;20060;-56
2024/01/16 02:34:04;;;;;;;4.18;0.98;;;0.40;99.90;;;;;;5032650;28;20058;-49
2024/01/16 02:36:29;;;;;;;3.92;0.20;;;0.40;99.90;;;;;;5023414;28;20407;-57
2024/01/16 02:38:55;;;;;;;2.00;0.40;;;0.40;99.90;;;;;;5048015;28;20432;-58
2024/01/16 02:41:21;;;;;;;8.13;0.70;;;0.30;99.90;;;;;;5027251;28;20048;-54
2024/01/16 02:43:47;;;;;;;2.33;0.25;;;0.30;99.90;;;;;;5043529;28;20052;-57
2024/01/16 02:46:14;;;;;;;3.97;0.70;;;0.20;99.90;;;;;;5051040;28;20462;-55
2024/01/16 02:48:40;;;;;;;4.22;0.82;;;0.20;99.90;;;;;;5041423;28;20470;-48
2024/01/16 02:51:05;;;;;;;3.13;0.40;;;0.10;99.90;;;;;;5028052;28;20334;-53
2024/01/16 02:53:31;;;;;;;5.65;0.68;;;0.00;99.90;;;;;;5025579;28;20041;-56
2024/01/16 02:56:00;;;;;;;5.18;0.52;;;0.00;99.90;;;;;;5027722;28;20048;-56
2024/01/16 02:58:30;;;;;;;2.95;0.20;;;0.00;99.90;;;;;;5039337;28;20080;-57
2024/01/16 03:00:57;;;;;;;3.80;0.38;;;0.00;99.90;;;;;;5027854;28;20136;-48
2024/01/16 03:03:24;;;;;;;0.10;0.05;;;0.10;99.90;;;;;;5056814;28;20422;-61
2024/01/16 03:05:50;;;;;;;3.15;0.40;;;0.20;99.90;;;;;;5027726;28;20045;-54
2024/01/16 03:08:15;;;;;;;1.10;0.10;;;0.20;99.90;;;;;;5051851;28;20509;-46
2024/01/16 03:10:42;;;;;;;0.85;0.10;;;0.20;99.90;;;;;;5057430;28;20062;-51
2024/01/16 03:13:08;;;;;;;1.92;0.50;;;0.30;99.90;;;;;;5053835;28;20049;-58
2024/01/16 03:15:34;;;;;;;2.47;0.73;;;0.30;99.90;;;;;;5031261;28;20047;-58
2024/01/16 03:18:01;;;;;;;2.42;0.50;;;0.30;99.90;;;;;;5026526;28;20134;-56
2024/01/16 03:20:27;;;;;;;1.35;0.35;;;0.30;99.90;;;;;;5048950;28;20048;-53
2024/01/16 03:22:53;;;;;;;0.80;0.22;;;0.30;99.90;;;;;;5045018;28;20037;-59
2024/01/16 03:25:19;;;;;;;0.73;0.32;;;0.30;99.90;;;;;;5040393;28;20530;-53
2024/01/16 03:27:45;;;;;;;0.90;0.10;;;0.40;99.90;;;;;;5042422;28;20044;-52
2024/01/16 03:30:11;;;;;;;2.97;0.85;;;0.50;99.90;;;;;;5053600;28;20037;-57
2024/01/16 03:32:38;;;;;;;1.10;0.38;;;0.60;99.90;;;;;;5024655;28;20041;-56
2024/01/16 03:35:04;;;;;;;4.57;0.20;;;0.60;99.90;;;;;;5044320;28;20407;-56
2024/01/16 03:37:30;;;;;;;1.58;0.47;;;0.60;99.90;;;;;;5026275;28;20169;-55
2024/01/16 03:39:56;;;;;;;1.75;0.30;;;0.60;99.90;;;;;;5009556;28;20763;-53
2024/01/16 03:42:23;;;;;;;5.75;0.65;;;0.60;99.90;;;;;;5043985;28;20143;-53
2024/01/16 03:44:49;;;;;;;2.20;0.35;;;0.50;99.90;;;;;;5045985;28;20357;-59
2024/01/16 03:47:15;;;;;;;1.48;0.35;;;0.40;99.90;;;;;;5044864;28;20063;-53
2024/01/16 03:49:42;;;;;;;3.08;0.32;;;0.40;99.90;;;;;;5046840;28;20044;-47
2024/01/16 03:52:08;;;;;;;6.38;0.77;;;0.40;99.90;;;;;;5010220;28;20086;-56
2024/01/16 03:54:34;;;;;;;15.90;0.95;;;0.30;99.90;;;;;;5044168;28;20055;-54
2024/01/16 03:56:59;;;;;;;5.18;0.57;;;0.20;99.90;;;;;;5036913;28;20044;-59
2024/01/16 03:59:25;;;;;;;3.05;0.80;;;0.20;99.90;;;;;;5042836;28;20048;-51
2024/01/16 04:01:51;;;;;;;5.20;0.77;;;0.20;99.90;;;;;;5028724;28;20697;-55
2024/01/16 04:04:17;;;;;;;5.05;0.88;;;0.10;99.90;;;;;;5009626;28;20121;-58
2024/01/16 04:06:43;;;;;;;3.25;0.95;;;0.10;99.90;;;;;;5023886;28;20037;-45
2024/01/16 04:09:09;;;;;;;6.80;0.90;;;0.10;99.90;;;;;;5047306;28;20281;-47
2024/01/16 04:11:35;;;;;;;7.85;0.60;;;0.00;99.90;;;;;;5013548;28;20135;-57
2024/01/16 04:14:01;;;;;;;4.25;1.10;;;0.00;99.90;;;;;;5030163;28;20487;-58
2024/01/16 04:16:27;;;;;;;1.38;0.20;;;0.00;99.90;;;;;;5028036;28;20053;-60
2024/01/16 04:18:53;;;;;;;7.53;0.55;;;0.00;99.90;;;;;;5036009;28;20066;-53
2024/01/16 04:21:19;;;;;;;0.98;0.75;;;0.00;99.90;;;;;;5025440;28;20045;-53
2024/01/16 04:23:44;;;;;;;8.20;0.60;;;0.00;99.90;;;;;;5053005;28;20114;-51
2024/01/16 04:26:10;;;;;;;6.60;0.38;;;0.00;99.90;;;;;;5046267;28;20061;-54
2024/01/16 04:28:39;;;;;;;3.88;0.55;;;0.00;99.90;;;;;;5025177;28;20075;-54
2024/01/16 04:31:05;;;;;;;5.97;0.90;;;0.00;99.90;;;;;;5043066;28;20041;-57
2024/01/16 04:33:30;;;;;;;1.65;0.45;;;0.10;99.90;;;;;;5042714;28;20416;-58
2024/01/16 04:35:56;;;;;;;1.35;0.52;;;0.10;99.90;;;;;;5042745;28;20047;-52
2024/01/16 04:38:23;;;;;;;4.25;0.38;;;0.00;99.90;;;;;;5046997;28;20589;-54
2024/01/16 04:40:49;;;;;;;5.07;0.80;;;0.10;99.90;;;;;;5046011;28;20491;-58
2024/01/16 04:43:15;;;;;;;5.47;0.60;;;0.10;99.90;;;;;;5045943;28;20045;-56
2024/01/16 04:45:42;;;;;;;9.52;0.77;;;0.10;99.90;;;;;;5044506;28;20085;-53
2024/01/16 04:48:08;;;;;;;8.80;1.17;;;0.10;99.90;;;;;;5014730;28;20087;-51
2024/01/16 04:50:35;;;;;;;2.15;0.57;;;0.10;99.90;;;;;;5024603;28;20490;-55
2024/01/16 04:53:01;;;;;;;12.07;1.83;;;0.10;99.90;;;;;;5041522;28;20049;-51
2024/01/16 04:55:28;;;;;;;4.82;0.63;;;0.10;99.90;;;;;;5050312;28;20376;-51
2024/01/16 04:57:54;;;;;;;0.95;0.25;;;0.20;99.90;;;;;;5027615;28;20059;-57
2024/01/16 05:00:20;;;;;;;1.70;0.68;;;0.20;99.90;;;;;;5043912;28;20128;-53
2024/01/16 05:02:46;;;;;;;4.13;0.60;;;0.30;99.90;;;;;;5006846;28;20168;-51
2024/01/16 05:05:15;;;;;;;4.45;0.32;;;0.30;99.90;;;;;;5045446;28;20052;-47
2024/01/16 05:07:41;;;;;;;1.10;0.52;;;0.40;99.90;;;;;;5044868;28;20470;-53
2024/01/16 05:10:12;;;;;;;2.63;0.13;;;0.40;99.90;;;;;;5053927;28;20342;-58
2024/01/16 05:12:39;;;;;;;1.10;0.30;;;0.40;99.90;;;;;;5042809;28;20045;-50
2024/01/16 05:15:05;;;;;;;5.38;0.60;;;0.40;99.90;;;;;;5044681;28;20105;-54
2024/01/16 05:17:31;;;;;;;3.33;0.77;;;0.50;99.90;;;;;;5041325;28;20041;-50
2024/01/16 05:19:57;;;;;;;0.00;0.00;;;0.50;99.90;;;;;;5050337;28;20555;-52
2024/01/16 05:22:23;;;;;;;4.78;0.40;;;0.50;99.90;;;;;;5042623;28;20045;-53
2024/01/16 05:24:48;;;;;;;0.47;0.22;;;0.60;99.90;;;;;;5041672;28;20029;-53
2024/01/16 05:27:14;;;;;;;3.92;0.80;;;0.50;99.90;;;;;;5042346;28;20061;-50
2024/01/16 05:29:43;;;;;;;19.40;1.77;;;0.60;99.90;;;;;;5041671;28;20577;-49
2024/01/16 05:32:08;;;;;;;2.65;0.63;;;0.60;99.90;;;;;;5046795;28;20080;-55
2024/01/16 05:34:34;;;;;;;7.38;1.08;;;0.60;99.90;;;;;;5044662;28;20118;-49
2024/01/16 05:37:00;;;;;;;1.77;0.38;;;0.60;99.90;;;;;;5047065;28;20072;-55
2024/01/16 05:39:26;;;;;;;6.25;0.88;;;0.60;99.90;;;;;;5041572;28;20048;-51
2024/01/16 05:41:52;;;;;;;4.43;0.52;;;0.60;99.90;;;;;;5026589;28;20309;-57
2024/01/16 05:44:18;;;;;;;9.50;1.00;;;0.60;99.90;;;;;;5045823;28;20568;-48
2024/01/16 05:46:43;;;;;;;16.02;1.85;;;0.70;99.90;;;;;;5052265;28;20123;-53
2024/01/16 05:49:09;;;;;;;15.95;1.80;;;0.70;99.90;;;;;;5023912;28;20141;-55
2024/01/16 05:51:34;;;;;;;14.98;2.10;;;0.70;99.90;;;;;;5025923;28;20041;-54
2024/01/16 05:54:00;;;;;;;13.70;2.95;;;0.70;99.90;;;;;;5046573;28;20483;-50
2024/01/16 05:56:26;;;;;;;16.55;2.45;;;0.70;99.90;;;;;;5041434;28;20045;-58
2024/01/16 05:58:52;;;;;;;5.60;1.40;;;0.70;99.90;;;;;;5032448;28;20406;-56
2024/01/16 06:01:17;;;;;;;7.40;1.08;;;0.80;99.90;;;;;;5052884;28;20107;-52
2024/01/16 06:03:46;;;;;;;12.95;1.35;;;0.80;99.90;;;;;;5024806;28;20033;-58
2024/01/16 06:06:12;;;;;;;6.22;0.47;;;0.80;99.90;;;;;;5007975;28;20095;-53
2024/01/16 06:08:37;;;;;;;2.15;0.60;;;0.80;99.90;;;;;;5040486;28;20041;-57
2024/01/16 06:11:03;;;;;;;1.23;0.60;;;0.80;99.90;;;;;;5044144;28;20391;-55
2024/01/16 06:13:31;;;;;;;4.93;0.60;;;0.80;99.90;;;;;;5033603;28;20056;-56
2024/01/16 06:15:57;;;;;;;15.25;1.77;;;0.80;99.90;;;;;;5041573;28;20304;-53
2024/01/16 06:18:23;;;;;;;5.90;0.63;;;0.80;99.90;;;;;;5039992;28;20454;-53
2024/01/16 06:20:54;;;;;;;9.95;0.98;;;0.80;99.90;;;;;;5023426;28;20163;-49
2024/01/16 06:23:20;;;;;;;5.63;0.65;;;0.80;99.90;;;;;;5042522;28;20108;-58
2024/01/16 06:25:46;;;;;;;11.65;1.90;;;0.80;99.90;;;;;;5031372;28;20587;-53
2024/01/16 06:28:12;;;;;;;4.00;0.80;;;0.80;99.90;;;;;;5041983;28;20057;-54
2024/01/16 06:30:37;;;;;;;10.93;1.27;;;0.80;99.90;;;;;;5043208;28;20036;-55
2024/01/16 06:33:03;;;;;;;7.15;0.80;;;0.70;99.90;;;;;;5027298;28;20049;-53
2024/01/16 06:35:29;;;;;;;11.05;1.92;;;0.80;99.90;;;;;;5037391;28;20095;-49
2024/01/16 06:37:55;;;;;;;8.18;1.15;;;0.70;99.90;;;;;;5012837;28;20045;-56
2024/01/16 06:40:20;;;;;;;12.88;1.25;;;0.80;99.90;;;;;;5046836;28;20041;-57
2024/01/16 06:42:46;;;;;;;4.72;0.75;;;0.80;99.90;;;;;;5049111;28;20078;-53
2024/01/16 06:45:13;;;;;;;2.47;0.13;;;0.80;99.90;;;;;;5044522;28;20073;-60
2024/01/16 06:47:39;;;;;;;3.47;0.70;;;0.80;99.90;;;;;;5043772;28;20044;-54
2024/01/16 06:50:05;;;;;;;8.00;1.00;;;0.90;99.90;;;;;;5026420;28;20479;-48
2024/01/16 06:52:31;;;;;;;11.98;1.80;;;0.90;99.90;;;;;;5029110;28;20440;-47
2024/01/16 06:54:57;;;;;;;10.30;1.42;;;0.90;99.90;;;;;;5054897;28;20129;-50
2024/01/16 06:57:22;;;;;;;9.55;1.52;;;0.90;99.90;;;;;;5027133;28;20045;-51
2024/01/16 06:59:48;;;;;;;6.03;0.90;;;0.90;99.90;;;;;;5059966;28;20078;-55
2024/01/16 07:02:14;;;;;;;4.82;0.43;;;1.00;99.90;;;;;;5038140;28;20037;-57
2024/01/16 07:04:40;;;;;;;10.45;1.05;;;1.00;99.90;;;;;;5043127;28;20166;-55
2024/01/16 07:07:05;;;;;;;11.90;1.00;;;0.90;99.90;;;;;;5025796;28;20067;-60
2024/01/16 07:09:31;;;;;;;6.30;0.57;;;0.90;99.90;;;;;;5050732;28;20055;-58
2024/01/16 07:11:57;;;;;;;10.98;0.73;;;0.90;99.90;;;;;;5048685;28;20380;-51
2024/01/16 07:14:22;;;;;;;2.17;0.60;;;0.80;99.90;;;;;;5049570;28;20060;-53
2024/01/16 07:16:49;;;;;;;5.10;0.82;;;0.80;99.90;;;;;;5044309;28;20093;-56
2024/01/16 07:19:15;;;;;;;12.35;1.60;;;0.80;99.90;;;;;;5036284;28;20063;-50
2024/01/16 07:21:41;;;;;;;10.10;1.25;;;0.70;99.90;;;;;;5041837;28;20044;-52
2024/01/16 07:24:07;;;;;;;3.38;0.47;;;0.70;99.90;;;;;;5028549;28;20052;-54
2024/01/16 07:26:34;;;;;;;10.88;1.15;;;0.70;99.90;;;;;;5035221;28;20052;-55
2024/01/16 07:28:59;;;;;;;3.92;0.93;;;0.60;99.90;;;;;;5054846;28;20408;-56
2024/01/16 07:31:25;;;;;;;6.45;0.98;;;0.60;99.90;;;;;;5044793;28;20037;-57
2024/01/16 07:33:51;;;;;;;11.02;1.30;;;0.50;99.90;;;;;;5025925;28;20424;-57
2024/01/16 07:36:17;;;;;;;15.25;1.30;;;0.50;99.90;;;;;;5047198;28;20036;-50
2024/01/16 07:38:43;;;;;;;8.23;1.05;;;0.50;99.90;;;;;;5047562;28;20496;-58
2024/01/16 07:41:09;;;;;;;7.03;0.90;;;0.40;99.90;;;;;;5029675;28;20157;-56
2024/01/16 07:43:35;;;;;;;11.57;1.10;;;0.30;99.90;;;;;;5045666;28;20048;-57
2024/01/16 07:46:01;;;;;;;2.80;0.65;;;0.30;99.90;;;;;;5032825;28;20076;-54
2024/01/16 07:48:26;;;;;;;9.98;1.05;;;0.30;99.90;;;;;;5040461;28;20158;-47
2024/01/16 07:50:52;;;;;;;10.32;1.70;;;0.30;99.90;;;;;;5044400;28;20395;-54
2024/01/16 07:53:18;;;;;;;7.32;1.15;;;0.20;99.90;;;;;;5045289;28;20451;-54
2024/01/16 07:55:44;;;;;;;6.00;0.93;;;0.10;99.90;;;;;;5043363;28;20045;-54
2024/01/16 07:58:13;;;;;;;9.07;1.02;;;0.10;99.90;;;;;;5029224;28;20045;-58
2024/01/16 08:00:39;;;;;;;4.25;0.80;;;0.00;99.90;;;;;;5028283;28;20041;-53
2024/01/16 08:03:08;;;;;;;6.90;1.35;;;0.10;99.90;;;;;;5044993;28;20048;-61
2024/01/16 08:05:33;;;;;;;4.90;0.80;;;0.00;99.90;;;;;;5024808;28;20060;-51
2024/01/16 08:07:59;;;;;;;7.20;0.90;;;0.00;99.90;;;;;;5027151;28;20049;-58
2024/01/16 08:10:25;;;;;;;4.18;0.80;;;0.10;99.90;;;;;;5028595;28;20108;-54
2024/01/16 08:12:51;;;;;;;4.72;1.15;;;0.00;99.90;;;;;;5046509;28;20047;-55
2024/01/16 08:15:17;;;;;;;4.40;0.82;;;0.10;99.90;;;;;;5024407;28;20344;-54
2024/01/16 08:17:42;;;;;;;5.28;0.68;;;0.20;99.90;;;;;;5026619;28;20052;-56
2024/01/16 08:20:09;;;;;;;0.28;0.25;;;0.10;99.90;;;;;;5015259;28;20536;-55
2024/01/16 08:22:36;;;;;;;2.55;0.43;;;0.20;99.90;;;;;;5042199;28;20041;-49
2024/01/16 08:25:04;;;;;;;2.00;0.43;;;0.20;99.90;;;;;;5050520;28;20041;-57
2024/01/16 08:27:31;;;;;;;2.78;0.55;;;0.30;99.90;;;;;;5039666;28;20068;-59
2024/01/16 08:29:57;;;;;;;4.00;0.73;;;0.30;99.90;;;;;;5024575;28;20182;-53
2024/01/16 08:32:22;;;;;;;1.30;0.57;;;0.30;99.90;;;;;;5047559;28;20156;-52
2024/01/16 08:34:48;;;;;;;5.60;0.70;;;0.40;99.90;;;;;;5046716;28;20132;-58
2024/01/16 08:37:14;;;;;;;7.00;1.10;;;0.50;99.90;;;;;;5049137;28;20041;-49
2024/01/16 08:39:40;;;;;;;3.05;0.40;;;0.60;99.90;;;;;;5041340;28;20059;-54
2024/01/16 08:42:05;;;;;;;5.88;0.63;;;0.70;99.90;;;;;;5044017;28;20045;-58
2024/01/16 08:44:31;;;;;;;1.33;0.40;;;0.80;99.90;;;;;;5039236;28;20080;-47
2024/01/16 08:46:59;;;;;;;4.63;0.30;;;0.80;99.90;;;;;;5028641;28;20389;-54
2024/01/16 08:49:25;;;;;;;1.13;0.30;;;0.80;99.90;;;;;;5042242;28;20060;-55
2024/01/16 08:51:50;;;;;;;2.47;0.30;;;0.70;99.90;;;;;;5047408;28;20048;-55
2024/01/16 08:54:16;;;;;;;5.38;0.70;;;0.70;99.90;;;;;;5038807;28;20136;-58
2024/01/16 08:56:42;;;;;;;7.93;0.63;;;0.70;99.90;;;;;;5024073;28;20497;-58
2024/01/16 08:59:10;;;;;;;10.57;1.80;;;0.70;99.90;;;;;;5026395;28;20092;-56
2024/01/16 09:01:35;;;;;;;4.20;0.55;;;0.70;99.90;;;;;;5040570;28;20566;-59
2024/01/16 09:04:01;;;;;;;4.28;0.88;;;0.70;99.90;;;;;;5043031;28;20076;-51
2024/01/16 09:06:27;;;;;;;8.05;1.13;;;0.70;99.90;;;;;;5024486;28;20419;-54
2024/01/16 09:08:52;;;;;;;9.10;1.15;;;0.80;99.90;;;;;;5040452;28;20068;-51
2024/01/16 09:11:18;;;;;;;7.25;0.40;;;0.90;99.90;;;;;;5035752;28;20107;-56
2024/01/16 09:13:44;;;;;;;0.40;0.20;;;0.80;99.90;;;;;;5021556;28;20076;-59
2024/01/16 09:16:10;;;;;;;3.85;1.00;;;0.80;99.90;;;;;;5045445;28;20425;-50
2024/01/16 09:18:35;;;;;;;3.00;1.38;;;0.80;99.90;;;;;;5042832;28;20243;-55
2024/01/16 09:21:01;;;;;;;2.38;0.68;;;0.90;99.90;;;;;;5032523;28;20917;-58
2024/01/16 09:23:27;;;;;;;6.07;0.75;;;0.90;99.90;;;;;;5035496;28;20041;-54
2024/01/16 09:25:53;;;;;;;3.97;0.40;;;0.90;99.90;;;;;;5038129;28;20053;-57
2024/01/16 09:28:19;;;;;;;9.13;0.70;;;0.90;99.90;;;;;;5023281;28;20509;-59
2024/01/16 09:30:44;;;;;;;8.23;0.75;;;0.90;99.90;;;;;;5041953;28;20043;-55
2024/01/16 09:33:11;;;;;;;4.00;0.68;;;0.90;99.90;;;;;;5040710;28;20418;-53
2024/01/16 09:35:37;;;;;;;2.70;0.50;;;1.00;99.90;;;;;;5038767;28;20047;-55
2024/01/16 09:38:05;;;;;;;9.30;0.70;;;1.00;99.90;;;;;;5024852;28;20057;-56
2024/01/16 09:40:30;;;;;;;1.83;0.52;;;1.00;99.90;;;;;;5045040;28;20084;-53
2024/01/16 09:42:56;;;;;;;6.97;1.13;;;1.00;99.90;;;;;;5042439;28;20581;-57
2024/01/16 09:45:24;;;;;;;9.30;0.80;;;1.10;99.90;;;;;;5024316;28;20036;-51
2024/01/16 09:47:51;;;;;;;5.45;0.85;;;1.10;99.90;;;;;;5040229;28;20168;-59
2024/01/16 09:50:18;;;;;;;4.10;1.42;;;1.20;99.90;;;;;;5024334;28;20766;-50
2024/01/16 09:52:46;;;;;;;2.22;0.32;;;1.20;99.90;;;;;;5033272;28;20604;-54
2024/01/16 09:55:14;;;;;;;5.18;0.60;;;1.20;99.90;;;;;;5024860;28;20542;-54
2024/01/16 09:57:41;;;;;;;10.75;0.80;;;1.30;99.90;;;;;;5019433;28;20404;-53
2024/01/16 10:00:14;;;;;;;2.00;0.73;;;1.40;99.90;;;;;;5040408;28;20037;-54
2024/01/16 10:02:40;;;;;;;5.38;1.92;;;1.40;99.90;;;;;;5046182;28;20137;-56
2024/01/16 10:05:08;;;;;;;4.65;0.60;;;1.40;99.90;;;;;;5042018;28;20053;-56
2024/01/16 10:07:37;;;;;;;8.05;1.05;;;1.50;99.90;;;;;;5049143;28;20399;-49
2024/01/16 10:10:04;;;;;;;4.35;0.73;;;1.50;99.90;;;;;;5030323;28;20037;-50
2024/01/16 10:12:30;;;;;;;3.22;0.73;;;1.60;99.90;;;;;;5030451;28;20481;-53
2024/01/16 10:14:56;;;;;;;3.30;0.50;;;1.60;99.90;;;;;;5050919;28;20585;-59
2024/01/16 10:17:34;;;;;;;9.30;1.00;;;1.60;99.90;;;;;;5024749;28;20091;-59
2024/01/16 10:20:04;;;;;;;6.68;0.98;;;1.70;99.90;;;;;;5029541;28;20053;-55
2024/01/16 10:22:30;;;;;;;4.07;0.55;;;1.70;99.90;;;;;;5047292;28;20489;-51
2024/01/16 10:25:16;;;;;;;8.50;0.85;;;1.80;99.90;;;;;;5056304;28;20083;-52
2024/01/16 10:27:43;;;;;;;5.07;0.70;;;1.80;99.90;;;;;;5027900;28;20168;-57
2024/01/16 10:30:10;;;;;;;3.63;0.47;;;1.80;99.90;;;;;;5032783;28;20033;-46
2024/01/16 10:32:40;;;;;;;5.25;0.75;;;1.80;99.90;;;;;;5024424;28;20115;-48
2024/01/16 10:35:13;;;;;;;5.75;0.60;;;1.80;99.90;;;;;;5027263;28;20500;-58
2024/01/16 10:37:53;;;;;;;10.65;0.93;;;1.80;99.90;;;;;;5033250;28;20045;-54
2024/01/16 10:40:26;;;;;;;1.73;0.40;;;1.80;99.90;;;;;;4997757;28;20491;-58
2024/01/16 10:43:05;;;;;;;5.63;0.85;;;1.90;99.90;;;;;;5029681;28;20106;-53
2024/01/16 10:45:32;;;;;;;5.35;0.73;;;1.90;99.90;;;;;;5024920;28;20057;-60
2024/01/16 10:48:08;;;;;;;8.13;1.00;;;1.90;99.90;;;;;;5013156;28;20072;-52
2024/01/16 10:50:38;;;;;;;0.63;0.20;;;1.90;99.90;;;;;;5022472;28;20058;-54
2024/01/16 10:53:05;;;;;;;5.32;0.40;;;1.90;99.90;;;;;;5010719;28;20050;-54
2024/01/16 10:55:36;;;;;;;1.77;0.57;;;2.00;99.90;;;;;;5006935;28;20131;-55
2024/01/16 10:58:05;;;;;;;4.47;0.65;;;2.00;99.90;;;;;;5022206;28;20059;-59
2024/01/16 11:00:35;;;;;;;0.43;0.13;;;2.00;99.90;;;;;;5012851;28;20049;-56
2024/01/16 11:03:11;;;;;;;6.65;0.57;;;2.00;99.90;;;;;;5021183;28;20570;-53
2024/01/16 11:05:37;;;;;;;6.05;0.63;;;2.00;99.90;;;;;;5030464;28;20048;-52
2024/01/16 11:08:05;;;;;;;3.67;0.43;;;2.00;99.90;;;;;;5002107;28;20099;-47
2024/01/16 11:10:34;;;;;;;4.97;0.85;;;2.10;99.90;;;;;;4993387;28;20049;-54
2024/01/16 11:13:01;;;;;;;3.00;0.35;;;2.00;99.90;;;;;;5014817;28;20082;-57
2024/01/16 11:15:31;;;;;;;3.05;0.45;;;2.00;99.90;;;;;;5025653;28;20137;-53
2024/01/16 11:18:01;;;;;;;1.52;0.55;;;2.00;99.90;;;;;;5003911;28;20050;-54
2024/01/16 11:20:28;;;;;;;7.80;0.60;;;2.00;99.90;;;;;;5013708;28;20041;-50
2024/01/16 11:22:59;;;;;;;1.90;0.55;;;2.00;99.90;;;;;;5014082;28;20426;-57
2024/01/16 11:25:34;;;;;;;1.95;0.22;;;2.00;99.90;;;;;;5029782;28;20495;-53
2024/01/16 11:28:13;;;;;;;2.20;0.47;;;2.00;99.90;;;;;;5024166;28;20049;-58
2024/01/16 11:30:39;;;;;;;4.07;0.63;;;1.90;99.90;;;;;;5020554;28;20056;-56
2024/01/16 11:33:05;;;;;;;5.75;1.02;;;1.90;99.90;;;;;;5041334;28;20122;-52
2024/01/16 11:35:40;;;;;;;1.30;0.50;;;1.90;99.90;;;;;;5040683;28;20124;-61
2024/01/16 11:38:16;;;;;;;5.15;0.90;;;1.90;99.90;;;;;;5043315;28;20048;-59
2024/01/16 11:40:43;;;;;;;5.00;0.90;;;1.90;99.90;;;;;;5048331;28;20113;-53
2024/01/16 11:43:34;;;;;;;5.25;0.82;;;1.90;99.90;;;;;;5049543;28;20495;-50
2024/01/16 11:46:04;;;;;;;4.20;0.75;;;2.00;99.90;;;;;;5042398;28;20111;-56
2024/01/16 11:48:30;;;;;;;3.35;1.10;;;1.90;99.90;;;;;;5044562;28;20114;-57
2024/01/16 11:50:56;;;;;;;3.70;1.38;;;1.80;99.90;;;;;;5041223;28;20083;-50
2024/01/16 11:53:41;;;;;;;1.58;1.08;;;1.80;99.90;;;;;;5028823;28;20534;-50
2024/01/16 11:56:09;;;;;;;2.45;1.20;;;1.80;99.90;;;;;;5038912;28;20507;-56
2024/01/16 11:58:38;;;;;;;3.67;1.30;;;1.80;99.90;;;;;;5018489;28;20076;-50
2024/01/16 12:01:05;;;;;;;3.40;1.60;;;1.70;99.90;;;;;;5045045;28;20560;-57
2024/01/16 12:03:31;;;;;;;3.55;1.15;;;1.70;99.90;;;;;;5039672;28;20064;-46
2024/01/16 12:06:00;;;;;;;2.47;1.55;;;1.70;99.90;;;;;;5038029;28;20479;-53
2024/01/16 12:08:28;;;;;;;6.38;1.65;;;1.70;99.90;;;;;;5043388;28;20037;-54
2024/01/16 12:10:54;;;;;;;4.95;1.70;;;1.60;99.90;;;;;;5055481;28;20052;-53
2024/01/16 12:13:19;;;;;;;7.75;1.55;;;1.70;99.90;;;;;;5050442;28;20044;-57
2024/01/16 12:15:46;;;;;;;9.65;1.75;;;1.50;99.90;;;;;;5041842;28;20041;-50
2024/01/16 12:18:18;;;;;;;1.35;1.02;;;1.50;99.90;;;;;;5040866;28;20124;-52
2024/01/16 12:20:44;;;;;;;6.30;2.13;;;1.50;99.90;;;;;;5043571;28;20131;-56
2024/01/16 12:23:10;;;;;;;3.90;1.02;;;1.50;99.90;;;;;;5029283;28;20139;-57
2024/01/16 12:25:39;;;;;;;2.53;1.17;;;1.50;99.90;;;;;;5033083;28;20580;-46
2024/01/16 12:28:06;;;;;;;3.00;1.08;;;1.50;99.90;;;;;;5027155;28;20490;-55
2024/01/16 12:30:33;;;;;;;0.70;0.70;;;1.50;99.90;;;;;;5044822;28;20418;-49
2024/01/16 12:33:10;;;;;;;1.20;0.65;;;1.40;99.90;;;;;;5023037;28;20445;-53
2024/01/16 12:35:47;;;;;;;9.05;1.17;;;1.50;99.90;;;;;;5029444;28;20056;-53
2024/01/16 12:38:14;;;;;;;2.47;0.65;;;1.40;99.90;;;;;;5039100;28;20041;-45
2024/01/16 12:40:51;;;;;;;1.15;0.20;;;1.40;99.90;;;;;;5043554;28;20049;-49
2024/01/16 12:43:21;;;;;;;1.33;0.80;;;1.40;99.90;;;;;;5043338;28;20053;-50
2024/01/16 12:45:55;;;;;;;10.32;1.27;;;1.40;99.90;;;;;;5042730;28;20124;-60
2024/01/16 12:58:51;;;;;;;1.90;0.25;;;1.50;99.90;;;;;;5075926;27;1291756;-45
2024/01/16 13:01:29;;;;;;;5.45;0.70;;;1.80;99.90;;;;;;5098833;28;20052;-57
2024/01/16 13:03:55;;;;;;;1.90;0.38;;;1.80;99.90;;;;;;5104978;28;20043;-56